sensor_id;sensor_type;location;lat;lon;timestamp;pressure;altitude;pressure_sealevel;temperature;humidity
21129;BME280;10722;51.910;8.352;2023-07-02T00:01:17;99894.13;;;16.50;100.00
21129;BME280;10722;51.910;8.352;2023-07-02T00:04:03;99900.16;;;16.52;100.00
21129;BME280;10722;51.910;8.352;2023-07-02T00:06:49;99901.00;;;16.54;100.00
21129;BME280;10722;51.910;8.352;2023-07-02T00:09:35;99886.28;;;16.50;100.00
21129;BME280;10722;51.910;8.352;2023-07-02T00:12:20;99889.72;;;16.52;100.00
21129;BME280;10722;51.910;8.352;2023-07-02T00:15:06;99891.66;;;16.41;100.00
21129;BME280;10722;51.910;8.352;2023-07-02T00:17:51;99889.81;;;16.48;100.00
21129;BME280;10722;51.910;8.352;2023-07-02T00:20:37;99888.06;;;16.48;100.00
21129;BME280;10722;51.910;8.352;2023-07-02T00:23:22;99891.53;;;16.49;100.00
21129;BME280;10722;51.910;8.352;2023-07-02T00:26:07;99889.91;;;16.43;100.00
21129;BME280;10722;51.910;8.352;2023-07-02T00:28:53;99894.34;;;16.40;100.00
21129;BME280;10722;51.910;8.352;2023-07-02T00:31:39;99894.34;;;16.40;100.00
21129;BME280;10722;51.910;8.352;2023-07-02T00:34:24;99889.13;;;16.38;100.00
21129;BME280;10722;51.910;8.352;2023-07-02T00:37:10;99884.81;;;16.37;100.00
21129;BME280;10722;51.910;8.352;2023-07-02T00:39:55;99890.03;;;16.35;100.00
21129;BME280;10722;51.910;8.352;2023-07-02T00:42:40;99898.84;;;16.30;100.00
21129;BME280;10722;51.910;8.352;2023-07-02T00:45:26;99893.63;;;16.31;100.00
21129;BME280;10722;51.910;8.352;2023-07-02T00:48:11;99898.78;;;16.33;100.00
21129;BME280;10722;51.910;8.352;2023-07-02T00:50:57;99889.19;;;16.35;100.00
21129;BME280;10722;51.910;8.352;2023-07-02T00:53:46;99895.38;;;16.29;100.00
21129;BME280;10722;51.910;8.352;2023-07-02T00:56:32;99892.81;;;16.28;100.00
21129;BME280;10722;51.910;8.352;2023-07-02T00:59:17;99872.00;;;16.25;100.00
21129;BME280;10722;51.910;8.352;2023-07-02T01:02:03;99864.19;;;16.22;100.00
21129;BME280;10722;51.910;8.352;2023-07-02T01:04:49;99860.78;;;16.20;100.00
21129;BME280;10722;51.910;8.352;2023-07-02T01:07:34;99886.69;;;16.29;100.00
21129;BME280;10722;51.910;8.352;2023-07-02T01:10:20;99881.41;;;16.32;100.00
21129;BME280;10722;51.910;8.352;2023-07-02T01:13:09;99876.31;;;16.26;100.00
21129;BME280;10722;51.910;8.352;2023-07-02T01:15:57;99862.50;;;16.21;100.00
21129;BME280;10722;51.910;8.352;2023-07-02T01:18:43;99865.16;;;16.19;100.00
21129;BME280;10722;51.910;8.352;2023-07-02T01:21:29;99862.53;;;16.19;100.00
21129;BME280;10722;51.910;8.352;2023-07-02T01:24:15;99861.78;;;16.12;100.00
21129;BME280;10722;51.910;8.352;2023-07-02T01:27:01;99857.47;;;16.10;100.00
21129;BME280;10722;51.910;8.352;2023-07-02T01:29:50;99869.53;;;16.17;100.00
21129;BME280;10722;51.910;8.352;2023-07-02T01:32:37;99875.25;;;16.36;100.00
21129;BME280;10722;51.910;8.352;2023-07-02T01:35:22;99869.16;;;16.37;100.00
21129;BME280;10722;51.910;8.352;2023-07-02T01:38:07;99862.16;;;16.38;100.00
21129;BME280;10722;51.910;8.352;2023-07-02T01:40:52;99861.38;;;16.34;100.00
21129;BME280;10722;51.910;8.352;2023-07-02T01:43:38;99859.09;;;16.16;100.00
21129;BME280;10722;51.910;8.352;2023-07-02T01:46:23;99865.28;;;16.11;100.00
21129;BME280;10722;51.910;8.352;2023-07-02T01:49:09;99856.63;;;16.09;100.00
21129;BME280;10722;51.910;8.352;2023-07-02T01:51:55;99853.19;;;16.07;100.00
21129;BME280;10722;51.910;8.352;2023-07-02T01:54:40;99859.41;;;16.00;100.00
21129;BME280;10722;51.910;8.352;2023-07-02T01:57:26;99874.94;;;16.08;100.00
21129;BME280;10722;51.910;8.352;2023-07-02T02:00:11;99861.88;;;16.08;100.00
21129;BME280;10722;51.910;8.352;2023-07-02T02:02:57;99880.09;;;16.09;100.00
21129;BME280;10722;51.910;8.352;2023-07-02T02:05:42;99879.00;;;16.21;100.00
21129;BME280;10722;51.910;8.352;2023-07-02T02:08:27;99881.88;;;16.07;100.00
21129;BME280;10722;51.910;8.352;2023-07-02T02:11:13;99885.44;;;16.03;100.00
21129;BME280;10722;51.910;8.352;2023-07-02T02:13:58;99886.28;;;16.04;100.00
21129;BME280;10722;51.910;8.352;2023-07-02T02:16:44;99898.44;;;16.05;100.00
21129;BME280;10722;51.910;8.352;2023-07-02T02:19:29;99890.66;;;16.03;100.00
21129;BME280;10722;51.910;8.352;2023-07-02T02:22:15;99893.28;;;16.03;100.00
21129;BME280;10722;51.910;8.352;2023-07-02T02:25:01;99892.41;;;16.03;100.00
21129;BME280;10722;51.910;8.352;2023-07-02T02:27:46;99895.88;;;16.02;100.00
21129;BME280;10722;51.910;8.352;2023-07-02T02:30:31;99895.88;;;16.03;100.00
21129;BME280;10722;51.910;8.352;2023-07-02T02:33:17;99887.97;;;16.08;100.00
21129;BME280;10722;51.910;8.352;2023-07-02T02:36:02;99898.44;;;16.05;100.00
21129;BME280;10722;51.910;8.352;2023-07-02T02:38:48;99894.09;;;16.05;100.00
21129;BME280;10722;51.910;8.352;2023-07-02T02:41:33;99893.28;;;16.03;100.00
21129;BME280;10722;51.910;8.352;2023-07-02T02:44:18;99892.41;;;16.03;100.00
21129;BME280;10722;51.910;8.352;2023-07-02T02:47:04;99891.50;;;16.04;100.00
21129;BME280;10722;51.910;8.352;2023-07-02T02:49:49;99892.31;;;16.07;100.00
21129;BME280;10722;51.910;8.352;2023-07-02T02:52:35;99886.28;;;16.05;100.00
21129;BME280;10722;51.910;8.352;2023-07-02T02:55:20;99880.09;;;16.09;100.00
21129;BME280;10722;51.910;8.352;2023-07-02T02:58:05;99883.56;;;16.10;100.00
21129;BME280;10722;51.910;8.352;2023-07-02T03:00:51;99874.81;;;16.12;100.00
21129;BME280;10722;51.910;8.352;2023-07-02T03:03:39;99881.81;;;16.12;100.00
21129;BME280;10722;51.910;8.352;2023-07-02T03:06:25;99876.56;;;16.13;100.00
21129;BME280;10722;51.910;8.352;2023-07-02T03:09:10;99873.97;;;16.13;100.00
21129;BME280;10722;51.910;8.352;2023-07-02T03:11:56;99874.75;;;16.17;100.00
21129;BME280;10722;51.910;8.352;2023-07-02T03:14:41;99880.81;;;16.19;100.00
21129;BME280;10722;51.910;8.352;2023-07-02T03:17:27;99874.69;;;16.20;100.00
21129;BME280;10722;51.910;8.352;2023-07-02T03:20:12;99878.16;;;16.21;100.00
21129;BME280;10722;51.910;8.352;2023-07-02T03:22:58;99871.22;;;16.20;100.00
21129;BME280;10722;51.910;8.352;2023-07-02T03:25:43;99875.41;;;16.28;100.00
21129;BME280;10722;51.910;8.352;2023-07-02T03:28:28;99868.56;;;16.23;100.00
21129;BME280;10722;51.910;8.352;2023-07-02T03:31:17;99872.88;;;16.24;100.00
21129;BME280;10722;51.910;8.352;2023-07-02T03:34:09;99868.50;;;16.26;100.00
21129;BME280;10722;51.910;8.352;2023-07-02T03:36:55;99872.78;;;16.28;100.00
21129;BME280;10722;51.910;8.352;2023-07-02T03:39:40;99871.09;;;16.26;100.00
21129;BME280;10722;51.910;8.352;2023-07-02T03:42:25;99868.50;;;16.26;100.00
21129;BME280;10722;51.910;8.352;2023-07-02T03:45:11;99865.88;;;16.26;100.00
21129;BME280;10722;51.910;8.352;2023-07-02T03:47:56;99867.56;;;16.28;100.00
21129;BME280;10722;51.910;8.352;2023-07-02T03:50:42;99865.03;;;16.25;100.00
21129;BME280;10722;51.910;8.352;2023-07-02T03:53:27;99865.09;;;16.21;100.00
21129;BME280;10722;51.910;8.352;2023-07-02T03:56:12;99867.63;;;16.25;100.00
21129;BME280;10722;51.910;8.352;2023-07-02T03:58:58;99876.56;;;16.13;100.00
21129;BME280;10722;51.910;8.352;2023-07-02T04:01:43;99885.38;;;16.06;100.00
21129;BME280;10722;51.910;8.352;2023-07-02T04:04:29;99897.66;;;16.01;100.00
21129;BME280;10722;51.910;8.352;2023-07-02T04:07:14;99904.69;;;15.96;100.00
21129;BME280;10722;51.910;8.352;2023-07-02T04:09:59;99928.03;;;16.04;100.00
21129;BME280;10722;51.910;8.352;2023-07-02T04:12:45;99936.78;;;16.01;100.00
21129;BME280;10722;51.910;8.352;2023-07-02T04:15:30;99948.41;;;15.82;100.00
21129;BME280;10722;51.910;8.352;2023-07-02T04:18:16;99935.22;;;15.34;100.00
21129;BME280;10722;51.910;8.352;2023-07-02T04:21:02;99929.13;;;15.35;100.00
21129;BME280;10722;51.910;8.352;2023-07-02T04:23:47;99938.75;;;15.30;100.00
21129;BME280;10722;51.910;8.352;2023-07-02T04:26:33;99938.84;;;15.23;100.00
21129;BME280;10722;51.910;8.352;2023-07-02T04:29:38;99951.84;;;15.27;100.00
21129;BME280;10722;51.910;8.352;2023-07-02T04:32:23;99950.31;;;15.10;100.00
21129;BME280;10722;51.910;8.352;2023-07-02T04:35:09;99959.75;;;15.20;100.00
21129;BME280;10722;51.910;8.352;2023-07-02T04:37:54;99947.72;;;15.10;100.00
21129;BME280;10722;51.910;8.352;2023-07-02T04:40:39;99939.78;;;15.18;100.00
21129;BME280;10722;51.910;8.352;2023-07-02T04:43:25;99939.03;;;15.08;100.00
21129;BME280;10722;51.910;8.352;2023-07-02T04:46:10;99944.13;;;15.17;100.00
21129;BME280;10722;51.910;8.352;2023-07-02T04:48:56;99947.44;;;15.32;100.00
21129;BME280;10722;51.910;8.352;2023-07-02T04:51:41;99947.47;;;15.27;100.00
21129;BME280;10722;51.910;8.352;2023-07-02T04:54:26;99946.53;;;15.33;100.00
21129;BME280;10722;51.910;8.352;2023-07-02T04:57:12;99949.94;;;15.38;100.00
21129;BME280;10722;51.910;8.352;2023-07-02T04:59:57;99956.97;;;15.31;100.00
21129;BME280;10722;51.910;8.352;2023-07-02T05:02:43;99963.91;;;15.32;100.00
21129;BME280;10722;51.910;8.352;2023-07-02T05:05:28;99964.91;;;15.23;100.00
21129;BME280;10722;51.910;8.352;2023-07-02T05:08:14;99985.81;;;15.17;100.00
21129;BME280;10722;51.910;8.352;2023-07-02T05:10:59;99978.84;;;15.21;100.00
21129;BME280;10722;51.910;8.352;2023-07-02T05:13:45;99996.94;;;15.30;100.00
21129;BME280;10722;51.910;8.352;2023-07-02T05:16:30;100000.41;;;15.31;100.00
21129;BME280;10722;51.910;8.352;2023-07-02T05:19:16;100009.25;;;15.20;100.00
21129;BME280;10722;51.910;8.352;2023-07-02T05:22:01;100017.13;;;15.14;100.00
21129;BME280;10722;51.910;8.352;2023-07-02T05:24:46;100022.38;;;15.13;100.00
21129;BME280;10722;51.910;8.352;2023-07-02T05:27:32;100021.25;;;15.32;100.00
21129;BME280;10722;51.910;8.352;2023-07-02T05:30:17;100024.63;;;15.40;100.00
21129;BME280;10722;51.910;8.352;2023-07-02T05:33:03;100028.03;;;15.42;100.00
21129;BME280;10722;51.910;8.352;2023-07-02T05:35:48;100022.72;;;15.50;100.00
21129;BME280;10722;51.910;8.352;2023-07-02T05:38:33;100027.81;;;15.61;100.00
21129;BME280;10722;51.910;8.352;2023-07-02T05:41:22;100028.59;;;15.66;100.00
21129;BME280;10722;51.910;8.352;2023-07-02T05:44:07;100022.56;;;15.62;100.00
21129;BME280;10722;51.910;8.352;2023-07-02T05:46:53;100019.88;;;15.72;100.00
21129;BME280;10722;51.910;8.352;2023-07-02T05:49:38;100025.03;;;15.75;100.00
21129;BME280;10722;51.910;8.352;2023-07-02T05:52:23;100014.41;;;15.87;100.00
21129;BME280;10722;51.910;8.352;2023-07-02T05:55:09;100015.03;;;16.03;100.00
21129;BME280;10722;51.910;8.352;2023-07-02T05:57:54;100018.22;;;16.19;100.00
21129;BME280;10722;51.910;8.352;2023-07-02T06:00:40;100003.47;;;16.19;100.00
21129;BME280;10722;51.910;8.352;2023-07-02T06:03:25;100000.00;;;16.17;100.00
21129;BME280;10722;51.910;8.352;2023-07-02T06:06:11;100011.19;;;16.24;100.00
21129;BME280;10722;51.910;8.352;2023-07-02T06:08:56;100007.72;;;16.25;100.00
21129;BME280;10722;51.910;8.352;2023-07-02T06:11:41;99991.00;;;16.35;100.00
21129;BME280;10722;51.910;8.352;2023-07-02T06:14:27;99993.66;;;16.33;100.00
21129;BME280;10722;51.910;8.352;2023-07-02T06:17:15;99978.72;;;16.39;100.00
21129;BME280;10722;51.910;8.352;2023-07-02T06:20:02;99954.78;;;16.63;97.15
21129;BME280;10722;51.910;8.352;2023-07-02T06:22:47;99936.38;;;16.69;93.86
21129;BME280;10722;51.910;8.352;2023-07-02T06:25:33;99902.78;;;16.94;91.03
21129;BME280;10722;51.910;8.352;2023-07-02T06:28:18;99907.22;;;16.92;90.03
21129;BME280;10722;51.910;8.352;2023-07-02T06:31:06;99881.97;;;16.91;87.28
21129;BME280;10722;51.910;8.352;2023-07-02T06:33:52;99849.84;;;16.88;84.71
21129;BME280;10722;51.910;8.352;2023-07-02T06:36:37;99865.78;;;16.72;84.12
21129;BME280;10722;51.910;8.352;2023-07-02T06:39:22;99890.94;;;16.79;84.48
21129;BME280;10722;51.910;8.352;2023-07-02T06:42:08;99911.63;;;16.90;84.96
21129;BME280;10722;51.910;8.352;2023-07-02T06:44:53;99899.56;;;16.83;83.37
21129;BME280;10722;51.910;8.352;2023-07-02T06:47:39;99892.97;;;17.06;82.38
21129;BME280;10722;51.910;8.352;2023-07-02T06:50:24;99873.22;;;16.94;81.20
21129;BME280;10722;51.910;8.352;2023-07-02T06:53:10;99880.34;;;16.87;80.47
21129;BME280;10722;51.910;8.352;2023-07-02T06:55:55;99908.16;;;16.90;81.14
21129;BME280;10722;51.910;8.352;2023-07-02T06:58:43;99898.97;;;17.11;80.29
21129;BME280;10722;51.910;8.352;2023-07-02T07:01:29;99895.66;;;17.41;79.33
21129;BME280;10722;51.910;8.352;2023-07-02T07:04:14;99892.03;;;17.45;78.43
21129;BME280;10722;51.910;8.352;2023-07-02T07:07:00;99852.88;;;17.44;76.43
21129;BME280;10722;51.910;8.352;2023-07-02T07:09:46;99848.84;;;17.31;75.36
21129;BME280;10722;51.910;8.352;2023-07-02T07:12:31;99824.03;;;17.11;73.46
21129;BME280;10722;51.910;8.352;2023-07-02T07:15:19;99847.28;;;17.23;74.27
21129;BME280;10722;51.910;8.352;2023-07-02T07:18:05;99872.78;;;17.50;75.08
21129;BME280;10722;51.910;8.352;2023-07-02T07:20:50;99879.38;;;17.29;74.98
21129;BME280;10722;51.910;8.352;2023-07-02T07:23:36;99896.94;;;17.61;75.41
21129;BME280;10722;51.910;8.352;2023-07-02T07:26:21;99910.03;;;17.97;75.06
21129;BME280;10722;51.910;8.352;2023-07-02T07:29:06;99904.53;;;17.70;75.24
21129;BME280;10722;51.910;8.352;2023-07-02T07:31:51;99920.75;;;17.86;75.35
21129;BME280;10722;51.910;8.352;2023-07-02T07:34:37;99915.75;;;17.75;74.81
21129;BME280;10722;51.910;8.352;2023-07-02T07:37:22;99924.44;;;17.76;74.29
21129;BME280;10722;51.910;8.352;2023-07-02T07:40:08;99893.72;;;17.50;71.38
21129;BME280;10722;51.910;8.352;2023-07-02T07:42:53;99907.84;;;17.78;71.94
21129;BME280;10722;51.910;8.352;2023-07-02T07:45:38;99931.34;;;17.42;73.04
21129;BME280;10722;51.910;8.352;2023-07-02T07:48:24;99943.47;;;17.46;73.38
21129;BME280;10722;51.910;8.352;2023-07-02T07:51:09;99959.94;;;17.50;74.14
21129;BME280;10722;51.910;8.352;2023-07-02T07:53:55;99947.78;;;17.86;72.89
21129;BME280;10722;51.910;8.352;2023-07-02T07:56:40;99895.34;;;17.91;69.55
21129;BME280;10722;51.910;8.352;2023-07-02T07:59:26;99899.75;;;18.22;69.48
21129;BME280;10722;51.910;8.352;2023-07-02T08:02:11;99870.75;;;17.97;67.92
21129;BME280;10722;51.910;8.352;2023-07-02T08:04:57;99858.91;;;18.16;66.42
21129;BME280;10722;51.910;8.352;2023-07-02T08:07:45;99871.72;;;18.56;65.52
21129;BME280;10722;51.910;8.352;2023-07-02T08:10:30;99826.34;;;18.56;63.52
21129;BME280;10722;51.910;8.352;2023-07-02T08:13:17;99816.19;;;18.75;62.03
21129;BME280;10722;51.910;8.352;2023-07-02T08:16:02;99835.44;;;18.74;62.21
21129;BME280;10722;51.910;8.352;2023-07-02T08:18:48;99846.00;;;18.69;62.38
21129;BME280;10722;51.910;8.352;2023-07-02T08:21:33;99873.19;;;18.96;62.78
21129;BME280;10722;51.910;8.352;2023-07-02T08:24:19;99918.59;;;18.66;64.30
21129;BME280;10722;51.910;8.352;2023-07-02T08:27:04;99892.59;;;18.59;63.23
21129;BME280;10722;51.910;8.352;2023-07-02T08:29:49;99870.94;;;18.84;61.99
21129;BME280;10722;51.910;8.352;2023-07-02T08:32:35;99873.69;;;18.79;61.59
21129;BME280;10722;51.910;8.352;2023-07-02T08:35:21;99871.22;;;18.73;60.55
21129;BME280;10722;51.910;8.352;2023-07-02T08:38:07;99912.06;;;18.82;62.26
21129;BME280;10722;51.910;8.352;2023-07-02T08:40:52;99931.78;;;18.63;63.10
21129;BME280;10722;51.910;8.352;2023-07-02T08:43:38;99878.28;;;18.40;60.35
21129;BME280;10722;51.910;8.352;2023-07-02T08:46:24;99896.97;;;18.59;60.83
21129;BME280;10722;51.910;8.352;2023-07-02T08:49:10;99898.47;;;18.36;61.11
21129;BME280;10722;51.910;8.352;2023-07-02T08:51:55;99910.56;;;18.41;60.81
21129;BME280;10722;51.910;8.352;2023-07-02T08:54:41;99905.41;;;18.39;60.62
21129;BME280;10722;51.910;8.352;2023-07-02T08:57:26;99923.09;;;18.62;60.68
21129;BME280;10722;51.910;8.352;2023-07-02T09:00:12;99953.88;;;18.87;61.48
21129;BME280;10722;51.910;8.352;2023-07-02T09:02:58;99921.22;;;18.97;60.31
21129;BME280;10722;51.910;8.352;2023-07-02T09:05:49;99892.59;;;19.19;58.00
21129;BME280;10722;51.910;8.352;2023-07-02T09:08:35;99858.69;;;18.85;56.41
21129;BME280;10722;51.910;8.352;2023-07-02T09:11:21;99863.56;;;18.67;55.98
21129;BME280;10722;51.910;8.352;2023-07-02T09:14:06;99866.78;;;18.77;55.85
21129;BME280;10722;51.910;8.352;2023-07-02T09:17:08;99888.63;;;19.06;56.05
21129;BME280;10722;51.910;8.352;2023-07-02T09:19:54;99873.50;;;18.86;55.49
21129;BME280;10722;51.910;8.352;2023-07-02T09:22:40;99837.19;;;18.72;54.00
21129;BME280;10722;51.910;8.352;2023-07-02T09:25:39;99866.38;;;18.91;54.33
21129;BME280;10722;51.910;8.352;2023-07-02T09:28:24;99878.72;;;18.87;54.88
21129;BME280;10722;51.910;8.352;2023-07-02T09:31:09;99885.69;;;18.55;55.20
21129;BME280;10722;51.910;8.352;2023-07-02T09:34:01;99910.88;;;18.30;56.29
21129;BME280;10722;51.910;8.352;2023-07-02T09:36:47;99917.50;;;18.74;56.18
21129;BME280;10722;51.910;8.352;2023-07-02T09:39:33;99888.50;;;19.10;54.56
21129;BME280;10722;51.910;8.352;2023-07-02T09:42:19;99851.78;;;19.10;52.87
21129;BME280;10722;51.910;8.352;2023-07-02T09:45:07;99862.81;;;18.93;52.65
21129;BME280;10722;51.910;8.352;2023-07-02T09:47:54;99875.09;;;19.19;52.98
21129;BME280;10722;51.910;8.352;2023-07-02T09:50:47;99902.66;;;19.33;53.69
21129;BME280;10722;51.910;8.352;2023-07-02T09:53:35;99892.78;;;19.13;53.84
21129;BME280;10722;51.910;8.352;2023-07-02T09:56:20;99900.16;;;19.00;53.41
21129;BME280;10722;51.910;8.352;2023-07-02T09:59:05;99938.63;;;18.99;54.44
21129;BME280;10722;51.910;8.352;2023-07-02T10:01:51;99944.19;;;18.89;55.35
21129;BME280;10722;51.910;8.352;2023-07-02T10:04:45;99956.63;;;18.80;55.54
21129;BME280;10722;51.910;8.352;2023-07-02T10:07:31;99942.34;;;18.59;54.84
21129;BME280;10722;51.910;8.352;2023-07-02T10:10:31;99927.03;;;18.78;53.93
21129;BME280;10722;51.910;8.352;2023-07-02T10:13:26;99929.16;;;18.64;54.30
21129;BME280;10722;51.910;8.352;2023-07-02T10:16:12;99948.41;;;19.22;54.63
21129;BME280;10722;51.910;8.352;2023-07-02T10:19:11;99946.38;;;19.04;54.36
21129;BME280;10722;51.910;8.352;2023-07-02T10:22:01;99931.97;;;19.17;53.44
21129;BME280;10722;51.910;8.352;2023-07-02T10:24:54;99923.56;;;19.06;52.62
21129;BME280;10722;51.910;8.352;2023-07-02T10:27:41;99912.13;;;19.09;52.44
21129;BME280;10722;51.910;8.352;2023-07-02T10:30:37;99910.41;;;19.37;51.77
21129;BME280;10722;51.910;8.352;2023-07-02T10:33:23;99953.41;;;19.02;54.20
21129;BME280;10722;51.910;8.352;2023-07-02T10:36:17;99932.16;;;19.67;53.18
21129;BME280;10722;51.910;8.352;2023-07-02T10:39:03;99885.44;;;19.79;51.14
21129;BME280;10722;51.910;8.352;2023-07-02T10:41:48;99895.41;;;18.83;52.01
21129;BME280;10722;51.910;8.352;2023-07-02T10:44:34;99927.63;;;18.55;52.98
21129;BME280;10722;51.910;8.352;2023-07-02T10:47:31;99958.84;;;18.96;53.97
21129;BME280;10722;51.910;8.352;2023-07-02T10:50:18;99946.84;;;18.87;54.04
21129;BME280;10722;51.910;8.352;2023-07-02T10:53:04;99965.16;;;19.18;54.58
21129;BME280;10722;51.910;8.352;2023-07-02T10:55:54;99941.88;;;19.08;53.77
21129;BME280;10722;51.910;8.352;2023-07-02T10:58:43;99967.66;;;18.92;55.27
21129;BME280;10722;51.910;8.352;2023-07-02T11:01:31;99969.56;;;19.18;54.90
21129;BME280;10722;51.910;8.352;2023-07-02T11:04:16;99983.84;;;19.06;54.77
21129;BME280;10722;51.910;8.352;2023-07-02T11:07:02;99983.00;;;19.35;54.60
21129;BME280;10722;51.910;8.352;2023-07-02T11:09:51;99986.78;;;19.26;55.32
21129;BME280;10722;51.910;8.352;2023-07-02T11:12:37;100005.22;;;19.81;55.55
21129;BME280;10722;51.910;8.352;2023-07-02T11:15:22;99971.06;;;19.83;54.66
21129;BME280;10722;51.910;8.352;2023-07-02T11:18:12;99994.16;;;19.72;55.25
21129;BME280;10722;51.910;8.352;2023-07-02T11:20:58;100003.84;;;19.10;56.06
21129;BME280;10722;51.910;8.352;2023-07-02T11:23:43;100031.16;;;19.33;56.82
21129;BME280;10722;51.910;8.352;2023-07-02T11:26:39;99990.13;;;19.00;55.11
21129;BME280;10722;51.910;8.352;2023-07-02T11:29:24;100010.03;;;19.08;56.37
21129;BME280;10722;51.910;8.352;2023-07-02T11:32:12;100038.66;;;19.45;57.04
21129;BME280;10722;51.910;8.352;2023-07-02T11:34:58;100024.28;;;19.58;55.70
21129;BME280;10722;51.910;8.352;2023-07-02T11:37:44;100017.19;;;19.90;56.55
21129;BME280;10722;51.910;8.352;2023-07-02T11:40:29;99992.63;;;20.44;54.68
21129;BME280;10722;51.910;8.352;2023-07-02T11:43:14;100030.41;;;20.67;56.48
21129;BME280;10722;51.910;8.352;2023-07-02T11:46:00;99989.53;;;20.06;54.87
21129;BME280;10722;51.910;8.352;2023-07-02T11:48:45;99992.53;;;19.08;55.42
21129;BME280;10722;51.910;8.352;2023-07-02T11:51:31;99979.91;;;19.51;54.60
21129;BME280;10722;51.910;8.352;2023-07-02T11:54:16;99987.69;;;19.82;54.64
21129;BME280;10722;51.910;8.352;2023-07-02T11:57:02;99955.91;;;19.91;52.98
21129;BME280;10722;51.910;8.352;2023-07-02T11:59:48;99969.59;;;19.44;54.21
21129;BME280;10722;51.910;8.352;2023-07-02T12:02:33;99989.97;;;19.36;55.93
21129;BME280;10722;51.910;8.352;2023-07-02T12:05:18;100008.53;;;19.58;55.53
21129;BME280;10722;51.910;8.352;2023-07-02T12:08:04;100011.75;;;19.38;54.97
21129;BME280;10722;51.910;8.352;2023-07-02T12:10:49;100021.34;;;19.39;55.47
21129;BME280;10722;51.910;8.352;2023-07-02T12:13:35;100057.09;;;19.43;56.50
21129;BME280;10722;51.910;8.352;2023-07-02T12:16:21;100035.28;;;19.99;55.35
21129;BME280;10722;51.910;8.352;2023-07-02T12:19:06;99959.25;;;20.46;51.25
21129;BME280;10722;51.910;8.352;2023-07-02T12:21:51;99985.34;;;20.27;52.21
21129;BME280;10722;51.910;8.352;2023-07-02T12:24:36;99992.44;;;20.49;52.32
21129;BME280;10722;51.910;8.352;2023-07-02T12:27:22;99962.22;;;19.85;51.60
21129;BME280;10722;51.910;8.352;2023-07-02T12:30:08;99993.34;;;20.23;52.92
21129;BME280;10722;51.910;8.352;2023-07-02T12:32:53;99958.25;;;20.50;51.39
21129;BME280;10722;51.910;8.352;2023-07-02T12:35:39;99920.97;;;19.89;49.68
21129;BME280;10722;51.910;8.352;2023-07-02T12:38:24;99942.75;;;20.18;49.77
21129;BME280;10722;51.910;8.352;2023-07-02T12:41:09;99929.78;;;20.38;49.32
21129;BME280;10722;51.910;8.352;2023-07-02T12:43:56;99953.97;;;20.48;49.89
21129;BME280;10722;51.910;8.352;2023-07-02T12:46:41;99935.34;;;20.29;49.60
21129;BME280;10722;51.910;8.352;2023-07-02T12:49:27;99963.69;;;20.94;49.64
21129;BME280;10722;51.910;8.352;2023-07-02T12:52:12;99968.59;;;21.27;50.04
21129;BME280;10722;51.910;8.352;2023-07-02T12:54:58;99947.63;;;21.69;48.34
21129;BME280;10722;51.910;8.352;2023-07-02T12:57:43;99969.28;;;21.32;49.26
21129;BME280;10722;51.910;8.352;2023-07-02T13:00:28;99922.09;;;20.82;47.69
21129;BME280;10722;51.910;8.352;2023-07-02T13:03:14;99974.09;;;21.21;49.60
21129;BME280;10722;51.910;8.352;2023-07-02T13:06:01;99916.09;;;21.00;47.62
21129;BME280;10722;51.910;8.352;2023-07-02T13:08:47;99917.16;;;20.96;47.02
21129;BME280;10722;51.910;8.352;2023-07-02T13:11:32;99954.13;;;20.92;49.32
21129;BME280;10722;51.910;8.352;2023-07-02T13:14:17;99952.94;;;21.00;48.87
21129;BME280;10722;51.910;8.352;2023-07-02T13:17:03;99924.31;;;20.44;48.58
21129;BME280;10722;51.910;8.352;2023-07-02T13:19:49;99997.16;;;20.66;51.08
21129;BME280;10722;51.910;8.352;2023-07-02T13:22:34;100024.34;;;21.37;51.78
21129;BME280;10722;51.910;8.352;2023-07-02T13:25:19;99982.22;;;21.38;49.69
21129;BME280;10722;51.910;8.352;2023-07-02T13:28:05;99959.19;;;20.98;48.96
21129;BME280;10722;51.910;8.352;2023-07-02T13:30:50;100006.78;;;21.14;51.15
21129;BME280;10722;51.910;8.352;2023-07-02T13:33:36;99935.56;;;20.96;48.66
21129;BME280;10722;51.910;8.352;2023-07-02T13:36:21;99969.13;;;20.90;49.26
21129;BME280;10722;51.910;8.352;2023-07-02T13:39:06;99940.13;;;21.15;47.85
21129;BME280;10722;51.910;8.352;2023-07-02T13:41:52;99955.78;;;20.94;48.32
21129;BME280;10722;51.910;8.352;2023-07-02T13:44:37;99956.59;;;20.96;47.91
21129;BME280;10722;51.910;8.352;2023-07-02T13:47:22;99984.44;;;20.78;49.66
21129;BME280;10722;51.910;8.352;2023-07-02T13:50:08;99950.66;;;20.91;48.46
21129;BME280;10722;51.910;8.352;2023-07-02T13:52:54;99976.28;;;21.10;49.30
21129;BME280;10722;51.910;8.352;2023-07-02T13:55:39;99991.47;;;21.25;49.47
21129;BME280;10722;51.910;8.352;2023-07-02T13:58:24;99975.13;;;20.93;49.25
21129;BME280;10722;51.910;8.352;2023-07-02T14:01:14;99975.22;;;20.67;49.29
21129;BME280;10722;51.910;8.352;2023-07-02T14:04:01;100003.66;;;21.04;50.50
21129;BME280;10722;51.910;8.352;2023-07-02T14:06:47;100025.69;;;21.00;51.42
21129;BME280;10722;51.910;8.352;2023-07-02T14:09:32;100002.78;;;20.55;51.60
21129;BME280;10722;51.910;8.352;2023-07-02T14:12:17;100036.53;;;20.92;52.65
21129;BME280;10722;51.910;8.352;2023-07-02T14:15:03;100003.00;;;20.74;50.67
21129;BME280;10722;51.910;8.352;2023-07-02T14:17:48;99988.84;;;20.78;49.99
21129;BME280;10722;51.910;8.352;2023-07-02T14:20:34;100010.28;;;20.66;51.50
21129;BME280;10722;51.910;8.352;2023-07-02T14:23:19;100020.81;;;20.66;51.57
21129;BME280;10722;51.910;8.352;2023-07-02T14:26:04;100027.97;;;20.86;51.86
21129;BME280;10722;51.910;8.352;2023-07-02T14:28:50;100068.69;;;20.99;53.89
21129;BME280;10722;51.910;8.352;2023-07-02T14:31:35;100057.06;;;20.81;53.11
21129;BME280;10722;51.910;8.352;2023-07-02T14:34:20;100053.69;;;20.77;53.33